El Seibo, Dominican Republic
Current Conditions -  °F | °C
As of 9:00 PM on Monday 26 Jan 2015 (Local Time) from MDLR Reporting Station
Few Clouds Few Clouds  
Wind Chill: 73°   Ceiling: Unl
Heat Index: 73°   Visibility: 6mi
Dew Point: 72°   Wind: 7mph
Humidity: 94%   Direction: 180°S
Pressure: 29.97"   Gusts: NA
Location:  18.77°N, 69.04°W
Report Text: MDLR 270100Z 18006KT 9999 FEW018 23/22 Q1015
Loading
Personal Weather Stations






























Interactive Weather Map New forecast layout! Learn more

10-Day Weather Forecast

Advertisements
Track Severe Weather on mobile